Latest Weather Observations for Mount Crawford

IDS60901

Issued at 8:11 am CDT Saturday 31 January 2015 (issued every 10 minutes, with the page automatically refreshed every 10 minutes)

About weather observations | Map of Adelaide area stations | Latest observations for Adelaide area | Other Formats
Station Details ID: 023878 Name: MT CRAWFORD AWS Lat: -34.73 Lon: 138.93 Height: 525.0 m
Data from the previous 72 hours. | See also: Recent months at Mount Crawford
Date/Time
CDT
Tmp

°C
App
Tmp
°C
Dew
Point
°C
Rel
Hum
%
Delta-T

°C
Wind Press
QNH
hPa
Press
MSL
hPa
Rain
since
9 am
mm
Dir
 
Spd
km/h
Gust
km/h
Spd
kts
Gust
kts
31/08:00am 11.0 6.1 9.8 92 0.6 ESE 26 35 14 19 1015.7 1013.4 0.0
31/07:30am 9.9 4.6 9.8 99 0.1 SE 28 39 15 21 1015.2 1012.9 0.0
31/07:00am 9.2 3.3 9.1 99 0.1 SE 30 39 16 21 1014.9 1012.7 0.0
31/06:30am 9.1 3.2 9.0 99 0.1 SE 30 39 16 21 1014.8 1012.6 0.0
31/06:00am 9.1 3.1 8.6 97 0.3 SE 30 41 16 22 1014.4 1012.1 0.0
31/05:30am 9.1 2.9 8.0 93 0.5 SE 30 39 16 21 1014.3 1012.0 0.0
31/05:00am 9.2 3.7 7.5 89 0.8 SE 26 35 14 19 1014.0 1011.7 0.0
31/04:30am 9.5 3.2 7.6 88 0.9 SE 30 43 16 23 1013.7 1011.4 0.0
31/04:00am 9.7 3.9 8.0 89 0.8 SE 28 39 15 21 1013.7 1011.4 0.0
31/03:30am 10.0 3.5 8.3 89 0.9 SSE 32 43 17 23 1013.5 1011.2 0.0
31/03:00am 10.3 4.1 9.2 93 0.6 SSE 32 43 17 23 1013.6 1011.3 0.0
31/02:30am 10.7 4.5 10.2 97 0.3 SSE 33 43 18 23 1013.8 1011.5 0.0
31/02:00am 10.9 5.0 10.4 97 0.3 SE 32 43 17 23 1013.9 1011.6 0.0
31/01:30am 10.9 5.3 10.0 94 0.5 SE 30 41 16 22 1014.1 1011.8 0.0
31/01:00am 11.1 5.0 9.9 92 0.6 SE 32 44 17 24 1014.2 1011.9 0.0
31/12:30am 11.3 5.2 9.9 91 0.7 SSE 32 41 17 22 1014.3 1012.0 0.0
31/12:00am 11.4 5.5 10.3 93 0.6 SE 32 43 17 23 1014.3 1012.0 0.0
 
Date/Time
CDT
Tmp

°C
App
Tmp
°C
Dew
Point
°C
Rel
Hum
%
Delta-T

°C
Wind Press
QNH
hPa
Press
MSL
hPa
Rain
since
9 am
mm
Dir
 
Spd
km/h
Gust
km/h
Spd
kts
Gust
kts
30/11:30pm 11.5 5.6 10.4 93 0.6 SE 32 43 17 23 1014.5 1012.2 0.0
30/11:00pm 11.7 5.6 10.3 91 0.7 SSE 33 43 18 23 1014.6 1012.3 0.0
30/10:30pm 11.6 5.6 10.2 91 0.7 SE 32 44 17 24 1014.8 1012.6 0.0
30/10:00pm 11.9 6.6 9.8 87 1.1 SE 28 43 15 23 1014.8 1012.6 0.0
30/09:00pm 13.0 8.1 8.3 73 2.4 SE 24 35 13 19 1014.5 1012.2 0.0
30/08:30pm 14.0 8.9 7.8 66 3.2 SE 24 33 13 18 1014.4 1012.1 0.0
30/08:00pm 15.7 11.0 7.7 59 4.1 SSE 22 32 12 17 1014.2 1011.9 0.0
30/07:30pm 17.2 12.1 7.8 54 4.9 SSE 24 35 13 19 1014.1 1011.8 0.0
30/07:00pm 18.9 14.6 7.7 48 5.9 SSE 20 30 11 16 1013.9 1011.6 0.0
30/06:30pm 19.9 15.0 7.0 43 6.7 SSE 22 35 12 19 1013.8 1011.5 0.0
30/06:00pm 21.0 16.5 6.9 40 7.4 SSE 20 32 11 17 1013.7 1011.4 0.0
30/05:30pm 21.6 16.6 4.7 33 8.5 SSE 20 33 11 18 1013.9 1011.6 0.0
30/05:00pm 22.8 18.3 4.3 30 9.3 SSE 17 32 9 17 1013.9 1011.6 0.0
30/04:30pm 23.0 17.9 3.0 27 9.9 SSE 19 28 10 15 1014.2 1011.9 0.0
30/04:00pm 23.2 18.3 2.1 25 10.2 SSE 17 26 9 14 1014.3 1012.0 0.0
30/03:30pm 22.6 17.3 2.1 26 9.9 SSE 19 30 10 16 1014.6 1012.3 0.0
30/03:00pm 22.9 18.2 2.9 27 9.8 SSW 17 32 9 17 1015.1 1012.8 0.0
30/02:30pm 22.4 17.1 3.0 28 9.5 S 20 28 11 15 1015.3 1013.0 0.0
30/02:00pm 21.6 16.5 2.8 29 9.1 SE 19 26 10 14 1015.6 1013.3 0.0
30/01:30pm 22.4 18.4 4.9 32 8.9 ESE 15 24 8 13 1015.8 1013.5 0.0
30/01:00pm 21.8 16.8 4.8 33 8.6 SE 20 30 11 16 1016.1 1013.8 0.0
30/12:30pm 20.2 14.8 4.7 36 7.7 SE 22 32 12 17 1016.6 1014.4 0.0
30/12:00pm 20.1 14.5 5.4 38 7.4 SE 24 37 13 20 1016.7 1014.5 0.0
30/11:30am 18.9 13.4 6.1 43 6.5 SE 24 32 13 17 1016.9 1014.7 0.0
30/11:00am 17.8 12.3 6.0 46 5.9 ESE 24 37 13 20 1016.7 1014.5 0.0
30/10:30am 17.4 12.1 6.9 50 5.4 ESE 24 35 13 19 1016.8 1014.6 0.0
30/10:00am 15.9 10.3 7.1 56 4.5 E 26 37 14 20 1017.2 1014.9 0.0
30/09:30am 15.2 9.6 7.0 58 4.1 E 26 35 14 19 1016.9 1014.7 0.0
30/09:00am 14.4 8.3 6.7 60 3.8 ESE 28 39 15 21 1016.8 1014.6 0.0
30/08:30am 13.4 7.3 6.5 63 3.4 E 28 39 15 21 1016.7 1014.5 0.0
30/08:00am 12.8 7.0 6.4 65 3.1 E 26 37 14 20 1016.6 1014.4 0.0
30/07:30am 11.8 4.8 5.9 67 2.8 ESE 32 39 17 21 1016.3 1014.0 0.0
30/07:00am 11.4 4.7 5.7 68 2.7 ESE 30 37 16 20 1016.1 1013.8 0.0
30/06:30am 11.1 4.0 5.6 69 2.6 ESE 32 37 17 20 1016.0 1013.7 0.0
30/06:00am 11.3 4.3 6.0 70 2.5 ESE 32 39 17 21 1015.8 1013.5 0.0
30/05:30am 11.7 4.8 6.4 70 2.6 ESE 32 39 17 21 1015.6 1013.3 0.0
30/05:00am 12.0 5.2 6.7 70 2.6 ESE 32 41 17 22 1015.5 1013.2 0.0
30/04:30am 12.4 5.7 7.3 71 2.5 ESE 32 39 17 21 1015.5 1013.2 0.0
30/04:00am 12.9 7.0 7.6 70 2.7 ESE 28 35 15 19 1015.7 1013.4 0.0
30/03:30am 13.1 7.8 8.4 73 2.4 SE 26 35 14 19 1015.9 1013.6 0.0
30/03:00am 13.5 8.0 9.0 74 2.3 SE 28 37 15 20 1015.9 1013.6 0.0
30/02:30am 13.6 8.8 10.4 81 1.7 SE 26 37 14 20 1015.8 1013.5 0.0
30/02:00am 13.8 8.9 11.3 85 1.4 SE 28 39 15 21 1015.6 1013.3 0.0
30/01:30am 13.8 8.8 12.2 90 0.9 SE 30 37 16 20 1015.4 1013.1 0.0
30/01:00am 13.9 9.7 12.5 91 0.8 SE 26 35 14 19 1015.5 1013.2 0.0
30/12:30am 13.9 9.4 12.6 92 0.7 SSE 28 35 15 19 1015.6 1013.3 0.0
30/12:00am 14.2 9.7 12.6 90 0.9 SSE 28 39 15 21 1015.7 1013.4 0.0
 
Date/Time
CDT
Tmp

°C
App
Tmp
°C
Dew
Point
°C
Rel
Hum
%
Delta-T

°C
Wind Press
QNH
hPa
Press
MSL
hPa
Rain
since
9 am
mm
Dir
 
Spd
km/h
Gust
km/h
Spd
kts
Gust
kts
29/11:30pm 14.4 9.8 12.3 87 1.2 SE 28 37 15 20 1015.9 1013.6 0.0
29/11:00pm 14.5 9.7 11.8 84 1.5 SSE 28 41 15 22 1016.0 1013.7 0.0
29/10:30pm 14.8 9.9 11.4 80 1.9 SSE 28 35 15 19 1016.1 1013.8 0.0
29/10:00pm 15.1 10.5 10.9 76 2.3 SSE 26 43 14 23 1016.2 1013.9 0.0
29/09:30pm 15.3 10.2 10.7 74 2.5 SSE 28 39 15 21 1016.2 1013.9 0.0
29/09:00pm 16.1 12.0 10.0 67 3.3 SSE 22 35 12 19 1016.1 1013.8 0.0
29/08:30pm 17.3 13.9 9.0 58 4.4 SSE 17 26 9 14 1016.0 1013.7 0.0
29/08:00pm 18.5 13.4 7.6 49 5.7 SSE 24 39 13 21 1015.9 1013.6 0.0
29/07:30pm 19.9 15.1 7.3 44 6.6 SSE 22 33 12 18 1015.9 1013.6 0.0
29/07:00pm 21.5 17.2 7.7 41 7.3 SSE 20 28 11 15 1015.7 1013.4 0.0
29/06:30pm 22.2 17.2 6.4 36 8.2 SSE 22 39 12 21 1015.5 1013.2 0.0
29/06:00pm 23.3 17.8 5.7 32 9.1 SE 24 37 13 20 1015.6 1013.3 0.0
29/05:30pm 24.3 18.3 3.6 26 10.4 SE 24 37 13 20 1015.5 1013.2 0.0
29/05:00pm 25.0 18.7 1.8 22 11.3 ESE 24 39 13 21 1015.6 1013.3 0.0
29/04:43pm 24.4 17.2 0.7 21 11.3 ESE 28 46 15 25 1015.6 1013.3 0.0
29/04:30pm 24.4 18.2 0.0 20 11.5 ESE 22 32 12 17 1015.9 1013.6 0.0
29/04:00pm 24.2 16.9 -0.2 20 11.4 ESE 28 44 15 24 1016.2 1013.9 0.0
29/03:30pm 24.4 17.7 -1.4 18 11.8 ESE 24 41 13 22 1016.3 1014.0 0.0
29/03:04pm 23.5 15.5 -2.2 18 11.5 ESE 30 48 16 26 1016.6 1014.4 0.0
29/03:00pm 23.4 15.9 -1.5 19 11.3 ESE 28 48 15 26 1016.5 1014.3 0.0
29/02:30pm 23.8 15.6 -1.2 19 11.4 SE 32 43 17 23 1016.9 1014.7 0.0
29/02:03pm 23.3 16.2 1.6 24 10.4 SE 28 46 15 25 1017.2 1014.9 0.0
29/02:00pm 22.7 16.0 1.7 25 10.1 SE 26 46 14 25 1017.3 1015.0 0.0
29/01:30pm 22.8 16.6 2.3 26 9.9 ESE 24 39 13 21 1017.5 1015.2 0.0
29/01:00pm 22.5 16.3 4.5 31 9.1 ESE 26 39 14 21 1017.9 1015.6 0.0
29/12:30pm 20.8 14.8 5.2 36 7.9 ESE 26 39 14 21 1018.0 1015.7 0.0
29/12:00pm 20.3 14.3 5.5 38 7.5 ESE 26 43 14 23 1018.1 1015.8 0.0
29/11:30am 20.1 15.3 7.5 44 6.6 E 22 28 12 15 1018.4 1016.2 0.0
29/11:00am 18.4 11.9 6.6 46 6.0 ESE 30 41 16 22 1018.2 1016.0 0.0
29/10:30am 17.7 12.0 6.9 49 5.5 E 26 39 14 21 1018.2 1016.0 0.0
29/10:00am 17.4 12.1 6.9 50 5.4 ESE 24 32 13 17 1018.2 1016.0 0.0
29/09:30am 16.0 10.5 7.5 57 4.3 E 26 37 14 20 1018.2 1016.0 0.0
29/09:00am 14.8 8.0 7.1 60 3.9 ESE 32 48 17 26 1018.1 1015.8 0.0
29/08:52am 14.4 8.0 7.0 61 3.7 ESE 30 48 16 26 1018.0 1015.7 0.0
29/08:30am 14.1 7.7 6.9 62 3.6 ESE 30 43 16 23 1018.1 1015.8 0.0
29/08:00am 13.4 6.4 7.0 65 3.2 ESE 33 43 18 23 1017.7 1015.4 0.0
29/07:30am 12.5 5.6 6.5 67 2.9 ESE 32 43 17 23 1017.5 1015.2 0.0
29/07:00am 12.0 5.1 6.5 69 2.7 ESE 32 41 17 22 1017.3 1015.0 0.0
29/06:30am 11.9 5.0 6.4 69 2.7 ESE 32 41 17 22 1016.9 1014.7 0.0
29/06:00am 12.1 5.6 6.4 68 2.8 ESE 30 39 16 21 1016.8 1014.6 0.0
29/05:30am 12.3 5.4 6.4 67 2.9 ESE 32 41 17 22 1016.5 1014.3 0.0
29/05:00am 12.5 6.0 6.5 67 2.9 ESE 30 39 16 21 1016.5 1014.3 0.0
29/04:30am 13.0 7.7 7.0 67 3.0 ESE 24 33 13 18 1016.4 1014.1 0.0
29/04:00am 13.3 7.7 7.3 67 3.0 ESE 26 35 14 19 1016.3 1014.0 0.0
29/03:30am 13.5 8.5 8.1 70 2.8 ESE 24 37 13 20 1016.3 1014.0 0.0
29/03:00am 13.7 9.6 8.7 72 2.6 ESE 20 30 11 16 1016.2 1013.9 0.0
29/02:30am 13.9 9.4 10.1 78 2.0 ESE 24 33 13 18 1016.0 1013.7 0.0
29/02:00am 14.2 9.3 11.4 83 1.5 SE 28 39 15 21 1015.9 1013.6 0.0
29/01:30am 14.2 9.5 12.1 87 1.2 SE 28 39 15 21 1016.0 1013.7 0.0
29/01:00am 14.3 9.6 12.0 86 1.3 SE 28 39 15 21 1015.8 1013.5 0.0
29/12:30am 14.3 9.3 12.3 88 1.1 SSE 30 39 16 21 1015.9 1013.6 0.0
29/12:00am 14.2 9.3 12.6 90 0.9 SE 30 39 16 21 1016.2 1013.9 0.0
 
Date/Time
CDT
Tmp

°C
App
Tmp
°C
Dew
Point
°C
Rel
Hum
%
Delta-T

°C
Wind Press
QNH
hPa
Press
MSL
hPa
Rain
since
9 am
mm
Dir
 
Spd
km/h
Gust
km/h
Spd
kts
Gust
kts
28/11:30pm 14.1 9.2 12.7 91 0.8 SSE 30 39 16 21 1016.2 1013.9 0.0
28/11:00pm 14.0 9.8 12.4 90 0.9 SSE 26 35 14 19 1016.3 1014.0 0.0
28/10:30pm 14.2 9.5 12.1 87 1.2 SSE 28 37 15 20 1016.4 1014.1 0.0
28/10:00pm 14.3 9.7 12.2 87 1.2 SSE 28 41 15 22 1016.4 1014.1 0.0
28/09:30pm 14.2 9.3 11.4 83 1.5 SSE 28 39 15 21 1016.3 1014.0 0.0
28/09:00pm 14.7 10.3 10.5 76 2.3 SSE 24 32 13 17 1016.3 1014.0 0.0
28/08:30pm 15.3 10.8 10.1 71 2.8 S 24 39 13 21 1016.3 1014.0 0.0
28/08:00pm 16.4 12.7 10.0 66 3.5 SSE 20 33 11 18 1016.1 1013.8 0.0
28/07:30pm 17.5 13.3 9.7 60 4.2 S 22 33 12 18 1016.2 1013.9 0.0
28/07:00pm 18.6 14.3 9.4 55 5.0 SSE 22 33 12 18 1016.0 1013.7 0.0
28/06:30pm 19.1 14.3 9.0 52 5.4 SE 24 35 13 19 1015.7 1013.4 0.0
28/06:00pm 19.6 14.3 8.3 48 6.0 SE 26 39 14 21 1015.7 1013.4 0.0
28/05:30pm 20.1 14.1 7.1 43 6.8 SE 28 41 15 22 1015.6 1013.3 0.0
28/05:00pm 20.5 15.1 6.4 40 7.3 SE 24 39 13 21 1015.8 1013.5 0.0
28/04:30pm 20.3 14.2 6.6 41 7.1 SE 28 43 15 23 1015.6 1013.3 0.0
28/04:10pm 21.0 15.0 6.9 40 7.4 SE 28 46 15 25 1015.7 1013.4 0.0
28/04:00pm 20.6 13.8 6.9 41 7.1 SE 32 44 17 24 1015.7 1013.4 0.0
28/03:40pm 20.5 13.7 6.8 41 7.1 SE 32 50 17 27 1015.6 1013.3 0.0
28/03:30pm 20.4 14.4 7.1 42 7.0 SE 28 43 15 23 1015.8 1013.5 0.0
28/03:00pm 21.3 14.4 4.8 34 8.3 SE 30 41 16 22 1016.0 1013.7 0.0
28/02:47pm 20.4 13.9 4.8 36 7.8 SE 28 46 15 25 1016.2 1013.9 0.0
28/02:30pm 20.6 15.5 6.2 39 7.4 SSE 22 39 12 21 1016.5 1014.3 0.0
28/02:00pm 20.1 13.6 4.6 36 7.7 SE 28 43 15 23 1016.6 1014.4 0.0
28/01:30pm 18.8 13.2 5.6 42 6.6 SE 24 43 13 23 1017.1 1014.8 0.0
28/01:00pm 18.9 13.0 5.7 42 6.7 SE 26 39 14 21 1017.1 1014.8 0.0
28/12:30pm 17.6 11.2 5.2 44 6.1 SSE 28 46 15 25 1017.1 1014.8 0.0
28/12:12pm 16.8 10.3 4.5 44 6.0 SE 28 46 15 25 1017.2 1014.9 0.0
28/12:00pm 17.5 11.7 6.1 47 5.7 SE 26 39 14 21 1017.3 1015.0 0.0
28/11:30am 16.0 10.5 5.9 51 5.0 SE 24 37 13 20 1017.6 1015.3 0.0
28/11:10am 14.8 8.5 5.6 54 4.5 SE 28 46 15 25 1017.7 1015.4 0.0
28/11:00am 15.7 10.3 6.2 53 4.7 SE 24 35 13 19 1017.8 1015.5 0.0
28/10:30am 14.2 7.6 6.1 58 4.0 SE 30 44 16 24 1017.8 1015.5 0.0
28/10:00am 12.7 5.5 6.1 64 3.2 SE 33 46 18 25 1017.3 1015.0 0.0
28/09:40am 11.8 3.1 6.1 68 2.8 ESE 41 65 22 35 1016.8 1014.6 0.0
28/09:30am 12.2 4.7 6.5 68 2.8 ESE 35 52 19 28 1017.1 1014.8 0.0
28/09:00am 10.1 1.9 6.4 78 1.8 SE 39 50 21 27 1017.1 1014.8 0.0
28/08:30am 10.1 2.8 7.0 81 1.5 ESE 35 56 19 30 1016.8 1014.6 0.0
28/08:13am 10.1 3.2 7.2 82 1.4 ESE 33 52 18 28 1016.8 1014.6 0.0

Latest Capital City Observations: Canberra | Sydney | Melbourne | Brisbane | Adelaide | Perth | Hobart | Darwin

Other Formats:

Comma delimited format used in spreadsheet applications
http://www.bom.gov.au/fwo/IDS60901/IDS60901.94678.axf

JavaScript Object Notation format (JSON) in row-major order
http://www.bom.gov.au/fwo/IDS60901/IDS60901.94678.json